createdAt,value
2023-08-08T00:02:15.442Z,99922.13
2023-08-08T00:04:41.985Z,99925.66
2023-08-08T00:07:08.597Z,99923.00
2023-08-08T00:09:35.057Z,99927.47
2023-08-08T00:12:01.675Z,99927.31
2023-08-08T00:14:28.240Z,99929.97
2023-08-08T00:16:54.700Z,99928.03
2023-08-08T00:19:21.246Z,99919.19
2023-08-08T00:21:47.875Z,99916.94
2023-08-08T00:24:14.729Z,99923.53
2023-08-08T00:26:41.227Z,99919.72
2023-08-08T00:29:07.776Z,99915.78
2023-08-08T00:31:34.299Z,99913.78
2023-08-08T00:34:00.929Z,99905.47
2023-08-08T00:36:27.436Z,99905.88
2023-08-08T00:38:53.912Z,99905.00
2023-08-08T00:41:20.455Z,99901.19
2023-08-08T00:43:46.980Z,99908.44
2023-08-08T00:46:13.690Z,99899.97
2023-08-08T00:48:40.211Z,99906.84
2023-08-08T00:51:06.768Z,99904.69
2023-08-08T00:53:33.413Z,99903.53
2023-08-08T00:56:00.513Z,99904.78
2023-08-08T00:58:27.316Z,99909.66
2023-08-08T01:00:57.661Z,99901.22
2023-08-08T01:03:24.268Z,99905.34
2023-08-08T01:06:27.842Z,99910.38
2023-08-08T01:09:09.406Z,99901.78
2023-08-08T01:11:37.427Z,99905.41
2023-08-08T01:14:05.711Z,99899.63
2023-08-08T01:16:32.616Z,99902.72
2023-08-08T01:18:59.644Z,99891.97
2023-08-08T01:21:28.664Z,99899.38
2023-08-08T01:24:17.564Z,99887.44
2023-08-08T01:26:44.233Z,99885.00
2023-08-08T01:29:10.885Z,99885.00
2023-08-08T01:31:37.591Z,99891.19
2023-08-08T01:34:05.361Z,99887.66
2023-08-08T01:36:44.709Z,99885.75
2023-08-08T01:39:15.087Z,99889.38
2023-08-08T01:41:43.107Z,99893.00
2023-08-08T01:44:10.226Z,99893.00
2023-08-08T01:46:37.663Z,99890.59
2023-08-08T01:49:04.237Z,99905.13
2023-08-08T01:51:30.810Z,99893.75
2023-08-08T01:53:57.378Z,99901.00
2023-08-08T01:56:24.052Z,99892.72
2023-08-08T01:58:50.710Z,99895.88
2023-08-08T02:01:17.229Z,99888.97
2023-08-08T02:03:45.812Z,99886.59
2023-08-08T02:06:12.526Z,99884.44
2023-08-08T02:08:39.198Z,99883.94
2023-08-08T02:11:05.761Z,99883.19
2023-08-08T02:13:32.233Z,99895.94
2023-08-08T02:15:58.825Z,99895.44
2023-08-08T02:18:26.810Z,99896.53
2023-08-08T02:20:53.279Z,99881.44
2023-08-08T02:23:19.843Z,99889.75
2023-08-08T02:25:46.418Z,99884.56
2023-08-08T02:28:12.879Z,99885.66
2023-08-08T02:30:39.609Z,99881.09
2023-08-08T02:33:06.200Z,99882.78
2023-08-08T02:35:34.651Z,99869.34
2023-08-08T02:38:01.310Z,99876.38
2023-08-08T02:40:28.066Z,99878.16
2023-08-08T02:42:54.901Z,99885.44
2023-08-08T02:45:21.988Z,99881.44
2023-08-08T02:47:48.798Z,99882.66
2023-08-08T02:50:15.411Z,99872.53
2023-08-08T02:52:41.974Z,99871.94
2023-08-08T02:55:09.456Z,99874.34
2023-08-08T02:57:37.905Z,99872.41
2023-08-08T03:00:05.769Z,99868.91
2023-08-08T03:02:37.455Z,99866.47
2023-08-08T03:05:05.401Z,99865.03
2023-08-08T03:07:32.014Z,99872.66
2023-08-08T03:09:58.527Z,99869.06
2023-08-08T03:12:25.326Z,99869.88
2023-08-08T03:14:53.479Z,99872.53
2023-08-08T03:17:20.133Z,99870.16
2023-08-08T03:19:46.767Z,99869.66
2023-08-08T03:22:14.829Z,99873.63
2023-08-08T03:24:42.020Z,99864.69
2023-08-08T03:27:08.566Z,99866.41
2023-08-08T03:29:35.527Z,99863.13
2023-08-08T03:32:02.161Z,99877.63
2023-08-08T03:34:31.363Z,99874.03
2023-08-08T03:36:58.050Z,99876.91
2023-08-08T03:39:25.166Z,99876.69
2023-08-08T03:41:51.780Z,99873.28
2023-08-08T03:44:18.860Z,99877.63
2023-08-08T03:46:45.519Z,99878.34
2023-08-08T03:49:13.875Z,99880.28
2023-08-08T03:51:40.527Z,99876.91
2023-08-08T03:54:07.168Z,99878.59
2023-08-08T03:56:33.868Z,99882.69
2023-08-08T03:59:00.558Z,99885.13
2023-08-08T04:01:27.109Z,99882.56
2023-08-08T04:03:53.890Z,99873.41
2023-08-08T04:06:23.337Z,99883.69
2023-08-08T04:08:49.920Z,99881.25
2023-08-08T04:11:16.600Z,99881.38
2023-08-08T04:13:43.173Z,99881.25
2023-08-08T04:16:09.788Z,99872.66
2023-08-08T04:18:37.090Z,99875.44
2023-08-08T04:21:03.606Z,99868.69
2023-08-08T04:23:30.140Z,99877.63
2023-08-08T04:25:56.729Z,99870.63
2023-08-08T04:28:23.479Z,99875.94
2023-08-08T04:30:50.087Z,99873.41
2023-08-08T04:33:16.630Z,99885.22
2023-08-08T04:35:43.210Z,99889.94
2023-08-08T04:38:09.829Z,99892.44
2023-08-08T04:40:36.823Z,99886.44
2023-08-08T04:43:04.702Z,99892.56
2023-08-08T04:45:31.214Z,99884.88
2023-08-08T04:47:58.466Z,99881.47
2023-08-08T04:50:25.010Z,99881.59
2023-08-08T04:52:51.578Z,99882.31
2023-08-08T04:55:18.068Z,99889.31
2023-08-08T04:57:45.352Z,99882.09
2023-08-08T05:00:13.042Z,99879.44
2023-08-08T05:02:40.528Z,99876.66
2023-08-08T05:05:07.806Z,99872.06
2023-08-08T05:07:37.402Z,99871.59
2023-08-08T05:10:04.515Z,99877.63
2023-08-08T05:12:31.046Z,99872.19
2023-08-08T05:14:57.812Z,99876.19
2023-08-08T05:17:24.399Z,99869.06
2023-08-08T05:19:50.910Z,99871.69
2023-08-08T05:22:17.436Z,99858.75
2023-08-08T05:24:43.938Z,99869.84
2023-08-08T05:27:10.663Z,99862.34
2023-08-08T05:29:39.186Z,99867.41
2023-08-08T05:32:07.696Z,99862.94
2023-08-08T05:34:35.133Z,99863.09
2023-08-08T05:37:10.718Z,99871.63
2023-08-08T05:39:41.505Z,99866.69
2023-08-08T05:42:08.005Z,99868.94
2023-08-08T05:44:34.667Z,99865.94
2023-08-08T05:47:01.163Z,99871.88
2023-08-08T05:49:27.726Z,99867.00
2023-08-08T05:51:54.389Z,99870.28
2023-08-08T05:54:20.926Z,99871.81
2023-08-08T05:56:47.584Z,99872.53
2023-08-08T05:59:14.100Z,99865.16
2023-08-08T06:01:40.666Z,99871.19
2023-08-08T06:04:07.482Z,99874.69
2023-08-08T06:06:34.065Z,99874.56
2023-08-08T06:09:00.538Z,99873.59
2023-08-08T06:11:27.040Z,99874.19
2023-08-08T06:13:53.664Z,99875.59
2023-08-08T06:16:21.237Z,99879.69
2023-08-08T06:18:47.850Z,99877.63
2023-08-08T06:21:14.363Z,99877.25
2023-08-08T06:23:40.894Z,99872.63
2023-08-08T06:26:07.470Z,99882.06
2023-08-08T06:28:34.366Z,99888.81
2023-08-08T06:31:01.977Z,99879.84
2023-08-08T06:33:29.265Z,99894.72
2023-08-08T06:35:56.701Z,99874.41
2023-08-08T06:38:23.757Z,99886.59
2023-08-08T06:40:50.693Z,99885.88
2023-08-08T06:43:17.254Z,99881.41
2023-08-08T06:45:44.781Z,99879.22
2023-08-08T06:48:11.511Z,99886.78
2023-08-08T06:50:38.030Z,99878.78
2023-08-08T06:53:04.806Z,99869.47
2023-08-08T06:55:31.344Z,99871.59
2023-08-08T06:57:57.814Z,99869.25
2023-08-08T07:00:24.391Z,99861.84
2023-08-08T07:02:50.993Z,99868.59
2023-08-08T07:05:17.974Z,99873.53
2023-08-08T07:07:45.951Z,99875.78
2023-08-08T07:10:13.654Z,99869.94
2023-08-08T07:12:40.272Z,99873.75
2023-08-08T07:15:08.493Z,99874.59
2023-08-08T07:17:35.235Z,99868.88
2023-08-08T07:20:01.915Z,99866.69
2023-08-08T07:22:29.522Z,99874.25
2023-08-08T07:24:56.109Z,99864.88
2023-08-08T07:27:23.065Z,99866.44
2023-08-08T07:29:49.713Z,99869.69
2023-08-08T07:32:16.247Z,99873.47
2023-08-08T07:34:42.811Z,99875.34
2023-08-08T07:37:09.965Z,99871.28
2023-08-08T07:39:36.444Z,99871.44
2023-08-08T07:42:04.450Z,99863.59
2023-08-08T07:44:32.828Z,99867.94
2023-08-08T07:46:59.546Z,99866.41
2023-08-08T07:49:26.062Z,99863.88
2023-08-08T07:51:52.718Z,99864.75
2023-08-08T07:54:19.225Z,99860.94
2023-08-08T07:56:45.771Z,99858.00
2023-08-08T07:59:12.276Z,99855.03
2023-08-08T08:01:38.825Z,99852.50
2023-08-08T08:04:05.333Z,99860.22
2023-08-08T08:06:32.878Z,99860.47
2023-08-08T08:08:59.495Z,99851.88
2023-08-08T08:11:25.969Z,99863.53
2023-08-08T08:13:52.541Z,99851.97
2023-08-08T08:16:19.511Z,99850.50
2023-08-08T08:18:46.119Z,99847.03
2023-08-08T08:21:14.269Z,99848.09
2023-08-08T08:23:41.077Z,99837.03
2023-08-08T08:26:08.193Z,99846.97
2023-08-08T08:28:34.830Z,99844.56
2023-08-08T08:31:06.174Z,99841.56
2023-08-08T08:33:32.870Z,99847.28
2023-08-08T08:35:59.503Z,99847.84
2023-08-08T08:38:25.973Z,99844.00
2023-08-08T08:40:55.220Z,99836.97
2023-08-08T08:43:21.645Z,99844.94
2023-08-08T08:45:52.111Z,99836.13
2023-08-08T08:48:20.338Z,99845.09
2023-08-08T08:50:48.435Z,99850.94
2023-08-08T08:53:16.038Z,99849.50
2023-08-08T08:55:42.807Z,99846.03
2023-08-08T08:58:10.871Z,99841.75
2023-08-08T09:00:37.618Z,99844.28
2023-08-08T09:03:05.192Z,99844.94
2023-08-08T09:05:32.314Z,99830.03
2023-08-08T09:07:59.074Z,99843.97
2023-08-08T09:10:27.491Z,99838.34
2023-08-08T09:12:54.446Z,99841.50
2023-08-08T09:15:20.923Z,99834.38
2023-08-08T09:17:49.152Z,99835.75
2023-08-08T09:20:16.457Z,99834.75
2023-08-08T09:22:43.060Z,99826.88
2023-08-08T09:25:09.564Z,99832.59
2023-08-08T09:27:37.022Z,99816.34
2023-08-08T09:30:04.368Z,99828.59
2023-08-08T09:32:33.971Z,99827.59
2023-08-08T09:35:00.824Z,99820.41
2023-08-08T09:37:29.552Z,99812.38
2023-08-08T09:40:00.569Z,99815.91
2023-08-08T09:42:27.757Z,99818.81
2023-08-08T09:44:54.568Z,99812.31
2023-08-08T09:47:23.197Z,99822.88
2023-08-08T09:49:50.274Z,99823.09
2023-08-08T09:52:17.517Z,99820.44
2023-08-08T09:54:44.116Z,99825.16
2023-08-08T09:57:11.055Z,99820.50
2023-08-08T09:59:38.555Z,99820.63
2023-08-08T10:02:06.231Z,99825.69
2023-08-08T10:04:33.227Z,99832.41
2023-08-08T10:06:59.689Z,99822.19
2023-08-08T10:09:26.137Z,99816.13
2023-08-08T10:11:52.937Z,99825.53
2023-08-08T10:14:19.488Z,99820.41
2023-08-08T10:16:46.989Z,99810.53
2023-08-08T10:19:13.947Z,99814.56
2023-08-08T10:21:44.642Z,99813.94
2023-08-08T10:24:11.814Z,99805.72
2023-08-08T10:26:58.575Z,99810.41
2023-08-08T10:29:26.753Z,99808.75
2023-08-08T10:32:13.432Z,99808.09
2023-08-08T10:34:44.870Z,99808.06
2023-08-08T10:37:16.531Z,99799.34
2023-08-08T10:39:55.008Z,99795.81
2023-08-08T10:42:23.562Z,99807.91
2023-08-08T10:45:00.783Z,99804.22
2023-08-08T10:47:32.228Z,99794.81
2023-08-08T10:50:10.275Z,99806.91
2023-08-08T10:52:54.406Z,99803.00
2023-08-08T10:55:35.170Z,99795.50
2023-08-08T10:58:07.342Z,99791.97
2023-08-08T11:00:37.265Z,99790.44
2023-08-08T11:03:07.386Z,99790.41
2023-08-08T11:05:35.353Z,99782.81
2023-08-08T11:08:02.681Z,99785.13
2023-08-08T11:10:32.438Z,99789.28
2023-08-08T11:13:00.766Z,99801.72
2023-08-08T11:15:28.357Z,99802.72
2023-08-08T11:17:56.707Z,99783.38
2023-08-08T11:20:24.536Z,99783.00
2023-08-08T11:22:55.289Z,99790.72
2023-08-08T11:25:22.930Z,99797.22
2023-08-08T11:27:53.372Z,99783.44
2023-08-08T11:30:20.641Z,99792.34
2023-08-08T11:33:15.426Z,99793.31
2023-08-08T11:35:35.414Z,99789.06
2023-08-08T11:38:03.473Z,99782.47
2023-08-08T11:40:30.696Z,99787.16
2023-08-08T11:42:57.974Z,99790.69
2023-08-08T11:45:25.613Z,99780.81
2023-08-08T11:47:53.954Z,99784.16
2023-08-08T11:50:23.963Z,99762.34
2023-08-08T11:52:53.569Z,99784.19
2023-08-08T11:55:23.334Z,99778.69
2023-08-08T11:57:50.589Z,99773.50
2023-08-08T12:00:18.857Z,99776.38
2023-08-08T12:02:45.847Z,99779.38
2023-08-08T12:05:22.649Z,99776.00
2023-08-08T12:07:49.454Z,99783.44
2023-08-08T12:10:17.904Z,99771.47
2023-08-08T12:12:45.769Z,99771.63
2023-08-08T12:15:16.437Z,99775.00
2023-08-08T12:17:44.445Z,99769.91
2023-08-08T12:20:11.322Z,99772.44
2023-08-08T12:22:38.016Z,99771.59
2023-08-08T12:25:05.187Z,99777.50
2023-08-08T12:27:31.743Z,99772.81
2023-08-08T12:29:58.907Z,99762.56
2023-08-08T12:32:29.277Z,99768.94
2023-08-08T12:34:57.141Z,99762.25
2023-08-08T12:37:24.737Z,99760.16
2023-08-08T12:39:51.610Z,99773.81
2023-08-08T12:42:18.745Z,99769.75
2023-08-08T12:44:45.881Z,99773.28
2023-08-08T12:47:13.290Z,99756.47
2023-08-08T12:49:41.763Z,99763.72
2023-08-08T12:52:08.650Z,99756.13
2023-08-08T12:54:37.046Z,99766.44
2023-08-08T12:57:03.886Z,99760.34
2023-08-08T12:59:30.660Z,99769.56
2023-08-08T13:01:57.692Z,99758.09
2023-08-08T13:04:24.299Z,99761.84
2023-08-08T13:06:50.859Z,99755.00
2023-08-08T13:09:17.377Z,99752.22
2023-08-08T13:11:44.228Z,99748.97
2023-08-08T13:14:10.719Z,99755.75
2023-08-08T13:16:37.425Z,99751.38
2023-08-08T13:19:05.003Z,99750.06
2023-08-08T13:21:31.476Z,99754.44
2023-08-08T13:23:58.667Z,99741.34
2023-08-08T13:26:25.196Z,99748.59
2023-08-08T13:28:51.728Z,99738.63
2023-08-08T13:31:18.314Z,99729.00
2023-08-08T13:33:44.855Z,99733.22
2023-08-08T13:36:11.400Z,99739.19
2023-08-08T13:38:38.013Z,99742.31
2023-08-08T13:41:04.536Z,99748.22
2023-08-08T13:43:31.574Z,99743.84
2023-08-08T13:45:58.259Z,99738.94
2023-08-08T13:48:24.807Z,99731.88
2023-08-08T13:50:52.090Z,99730.22
2023-08-08T13:53:18.613Z,99733.38
2023-08-08T13:55:45.756Z,99728.56
2023-08-08T13:58:12.499Z,99742.53
2023-08-08T14:00:39.020Z,99746.09
2023-08-08T14:03:06.196Z,99739.41
2023-08-08T14:05:33.098Z,99736.41
2023-08-08T14:07:59.633Z,99741.47
2023-08-08T14:10:26.213Z,99737.09
2023-08-08T14:12:52.757Z,99738.09
2023-08-08T14:15:19.195Z,99736.78
2023-08-08T14:17:46.736Z,99725.72
2023-08-08T14:20:13.437Z,99733.59
2023-08-08T14:22:39.966Z,99726.22
2023-08-08T14:25:09.883Z,99727.16
2023-08-08T14:27:36.607Z,99717.72
2023-08-08T14:30:04.952Z,99709.91
2023-08-08T14:32:31.902Z,99723.19
2023-08-08T14:34:59.841Z,99712.88
2023-08-08T14:37:26.690Z,99715.13
2023-08-08T14:39:54.031Z,99712.88
2023-08-08T14:42:21.139Z,99713.09
2023-08-08T14:44:47.705Z,99721.44
2023-08-08T14:47:14.256Z,99728.28
2023-08-08T14:49:40.704Z,99726.09
2023-08-08T14:52:09.794Z,99729.84
2023-08-08T14:54:36.287Z,99740.34
2023-08-08T14:57:02.965Z,99739.41
2023-08-08T14:59:29.872Z,99746.50
2023-08-08T15:01:56.577Z,99745.88
2023-08-08T15:04:23.333Z,99744.88
2023-08-08T15:06:49.898Z,99756.84
2023-08-08T15:09:16.479Z,99761.06
2023-08-08T15:11:42.964Z,99762.06
2023-08-08T15:14:09.603Z,99762.25
2023-08-08T15:16:36.235Z,99759.88
2023-08-08T15:19:03.169Z,99762.06
2023-08-08T15:21:29.655Z,99760.22
2023-08-08T15:23:56.103Z,99765.78
2023-08-08T15:26:23.805Z,99766.47
2023-08-08T15:28:50.531Z,99767.47
2023-08-08T15:31:17.660Z,99763.94
2023-08-08T15:33:44.472Z,99760.56
2023-08-08T15:36:11.157Z,99775.00
2023-08-08T15:38:37.668Z,99772.50
2023-08-08T15:41:04.245Z,99768.47
2023-08-08T15:43:31.403Z,99764.44
2023-08-08T15:45:59.643Z,99761.59
2023-08-08T15:48:26.991Z,99760.06
2023-08-08T15:50:53.508Z,99753.34
2023-08-08T15:53:20.832Z,99753.34
2023-08-08T15:55:47.543Z,99757.53
2023-08-08T15:58:14.204Z,99760.22
2023-08-08T16:00:40.789Z,99766.28
2023-08-08T16:03:07.519Z,99756.88
2023-08-08T16:05:34.284Z,99761.25
2023-08-08T16:08:02.269Z,99760.41
2023-08-08T16:10:28.867Z,99763.56
2023-08-08T16:12:55.489Z,99759.56
2023-08-08T16:15:22.637Z,99761.22
2023-08-08T16:17:49.288Z,99765.94
2023-08-08T16:20:17.654Z,99765.75
2023-08-08T16:22:46.004Z,99767.09
2023-08-08T16:25:12.587Z,99766.75
2023-08-08T16:27:39.207Z,99766.94
2023-08-08T16:30:06.274Z,99763.56
2023-08-08T16:32:33.020Z,99762.06
2023-08-08T16:34:59.649Z,99770.66
2023-08-08T16:37:26.453Z,99772.00
2023-08-08T16:39:53.014Z,99778.38
2023-08-08T16:42:20.969Z,99778.88
2023-08-08T16:44:47.398Z,99776.88
2023-08-08T16:47:13.889Z,99780.88
2023-08-08T16:49:40.725Z,99788.09
2023-08-08T16:52:07.228Z,99775.84
2023-08-08T16:54:34.737Z,99773.16
2023-08-08T16:57:01.317Z,99781.22
2023-08-08T16:59:27.805Z,99778.34
2023-08-08T17:01:54.255Z,99769.78
2023-08-08T17:04:20.898Z,99773.34
2023-08-08T17:06:47.426Z,99772.00
2023-08-08T17:09:14.787Z,99769.47
2023-08-08T17:11:41.423Z,99767.63
2023-08-08T17:14:07.959Z,99766.97
2023-08-08T17:16:34.547Z,99759.44
2023-08-08T17:19:01.143Z,99759.56
2023-08-08T17:21:27.679Z,99771.47
2023-08-08T17:23:54.244Z,99773.50
2023-08-08T17:26:20.798Z,99766.78
2023-08-08T17:28:48.396Z,99766.59
2023-08-08T17:31:14.933Z,99762.41
2023-08-08T17:33:41.609Z,99769.28
2023-08-08T17:36:08.110Z,99768.28
2023-08-08T17:38:34.711Z,99767.28
2023-08-08T17:41:01.188Z,99767.59
2023-08-08T17:43:28.031Z,99771.47
2023-08-08T17:45:57.097Z,99772.31
2023-08-08T17:48:23.663Z,99771.63
2023-08-08T17:50:50.233Z,99769.28
2023-08-08T17:53:16.848Z,99771.81
2023-08-08T17:55:43.640Z,99771.47
2023-08-08T17:58:10.195Z,99777.16
2023-08-08T18:00:37.364Z,99774.81
2023-08-08T18:03:04.344Z,99783.16
2023-08-08T18:05:31.313Z,99776.06
2023-08-08T18:07:57.913Z,99771.88
2023-08-08T18:10:24.637Z,99783.78
2023-08-08T18:12:51.199Z,99784.94
2023-08-08T18:15:17.723Z,99786.13
2023-08-08T18:17:44.304Z,99776.56
2023-08-08T18:20:12.678Z,99780.25
2023-08-08T18:22:39.126Z,99784.75
2023-08-08T18:25:06.039Z,99774.22
2023-08-08T18:27:32.549Z,99764.81
2023-08-08T18:29:59.130Z,99767.66
2023-08-08T18:32:26.221Z,99765.13
2023-08-08T18:34:52.821Z,99763.63
2023-08-08T18:37:20.071Z,99754.22
2023-08-08T18:39:46.742Z,99765.94
2023-08-08T18:42:13.383Z,99760.91
2023-08-08T18:44:39.863Z,99759.94
2023-08-08T18:47:06.600Z,99750.66
2023-08-08T18:49:33.120Z,99758.72
2023-08-08T18:51:59.994Z,99767.75
2023-08-08T18:54:26.735Z,99771.47
2023-08-08T18:56:53.224Z,99770.94
2023-08-08T18:59:21.643Z,99765.41
2023-08-08T19:01:48.225Z,99769.09
2023-08-08T19:04:14.854Z,99768.25
2023-08-08T19:06:41.414Z,99772.94
2023-08-08T19:09:11.175Z,99777.47
2023-08-08T19:11:37.843Z,99777.75
2023-08-08T19:14:04.885Z,99774.41
2023-08-08T19:16:31.924Z,99773.56
2023-08-08T19:18:58.521Z,99771.06
2023-08-08T19:21:25.176Z,99768.38
2023-08-08T19:23:52.895Z,99772.03
2023-08-08T19:26:19.418Z,99761.66
2023-08-08T19:28:46.771Z,99766.16
2023-08-08T19:31:15.380Z,99778.91
2023-08-08T19:33:51.858Z,99780.06
2023-08-08T19:36:27.207Z,99778.53
2023-08-08T19:38:53.787Z,99780.34
2023-08-08T19:41:20.279Z,99772.66
2023-08-08T19:43:46.885Z,99780.00
2023-08-08T19:46:15.367Z,99782.69
2023-08-08T19:48:42.565Z,99775.13
2023-08-08T19:51:09.136Z,99774.63
2023-08-08T19:53:37.060Z,99782.13
2023-08-08T19:56:03.553Z,99775.06
2023-08-08T19:58:30.315Z,99778.78
2023-08-08T20:00:57.819Z,99785.25
2023-08-08T20:03:24.428Z,99773.88
2023-08-08T20:05:51.011Z,99778.38
2023-08-08T20:08:19.536Z,99778.56
2023-08-08T20:10:46.069Z,99775.31
2023-08-08T20:13:13.609Z,99774.47
2023-08-08T20:15:40.197Z,99769.44
2023-08-08T20:18:07.184Z,99765.91
2023-08-08T20:20:33.811Z,99770.44
2023-08-08T20:23:00.385Z,99769.44
2023-08-08T20:25:27.086Z,99765.25
2023-08-08T20:27:53.565Z,99775.97
2023-08-08T20:30:20.062Z,99765.88
2023-08-08T20:32:46.610Z,99770.25
2023-08-08T20:35:14.427Z,99777.41
2023-08-08T20:37:41.209Z,99776.59
2023-08-08T20:40:08.214Z,99772.56
2023-08-08T20:42:34.778Z,99766.50
2023-08-08T20:45:01.306Z,99774.16
2023-08-08T20:47:28.016Z,99768.13
2023-08-08T20:49:54.504Z,99771.28
2023-08-08T20:52:21.041Z,99776.75
2023-08-08T20:54:47.570Z,99772.56
2023-08-08T20:57:14.107Z,99774.72
2023-08-08T20:59:42.529Z,99781.25
2023-08-08T21:02:09.237Z,99777.16
2023-08-08T21:04:35.773Z,99779.19
2023-08-08T21:07:02.871Z,99790.66
2023-08-08T21:09:29.599Z,99789.13
2023-08-08T21:11:56.896Z,99797.59
2023-08-08T21:14:23.366Z,99788.97
2023-08-08T21:16:49.996Z,99796.53
2023-08-08T21:19:16.584Z,99786.75
2023-08-08T21:21:43.270Z,99789.72
2023-08-08T21:24:09.862Z,99783.25
2023-08-08T21:26:39.740Z,99787.06
2023-08-08T21:29:06.984Z,99784.00
2023-08-08T21:31:33.482Z,99790.50
2023-08-08T21:34:00.034Z,99779.25
2023-08-08T21:36:26.527Z,99781.53
2023-08-08T21:38:53.062Z,99785.34
2023-08-08T21:41:19.602Z,99786.81
2023-08-08T21:43:46.176Z,99792.59
2023-08-08T21:46:12.995Z,99796.72
2023-08-08T21:48:39.436Z,99785.75
2023-08-08T21:51:06.206Z,99786.06
2023-08-08T21:53:34.252Z,99783.97
2023-08-08T21:56:02.281Z,99780.75
2023-08-08T21:58:29.214Z,99775.31
2023-08-08T22:00:55.721Z,99774.16
2023-08-08T22:03:22.409Z,99776.13
2023-08-08T22:05:49.144Z,99775.47
2023-08-08T22:08:15.738Z,99772.34
2023-08-08T22:10:42.428Z,99766.75
2023-08-08T22:13:10.679Z,99766.91
2023-08-08T22:15:38.150Z,99771.44
2023-08-08T22:18:16.485Z,99763.69
2023-08-08T22:20:44.471Z,99753.47
2023-08-08T22:23:19.600Z,99750.91
2023-08-08T22:25:47.379Z,99748.25
2023-08-08T22:28:13.850Z,99746.44
2023-08-08T22:30:40.514Z,99752.91
2023-08-08T22:33:07.251Z,99755.59
2023-08-08T22:35:33.756Z,99737.16
2023-08-08T22:38:00.347Z,99734.94
2023-08-08T22:40:26.894Z,99738.16
2023-08-08T22:42:53.393Z,99744.22
2023-08-08T22:45:19.973Z,99733.66
2023-08-08T22:47:46.605Z,99729.28
2023-08-08T22:50:13.523Z,99729.19
2023-08-08T22:52:40.029Z,99719.47
2023-08-08T22:55:07.053Z,99723.56
2023-08-08T22:57:33.736Z,99716.56
2023-08-08T23:00:00.780Z,99713.03
2023-08-08T23:02:27.315Z,99716.25
2023-08-08T23:04:53.800Z,99720.63
2023-08-08T23:07:20.417Z,99710.09
2023-08-08T23:09:49.101Z,99711.06
2023-08-08T23:12:15.936Z,99705.88
2023-08-08T23:14:42.786Z,99703.50
2023-08-08T23:17:09.852Z,99704.63
2023-08-08T23:19:36.675Z,99698.31
2023-08-08T23:22:03.234Z,99687.78
2023-08-08T23:24:30.063Z,99678.91
2023-08-08T23:26:56.704Z,99671.75
2023-08-08T23:29:23.870Z,99663.91
2023-08-08T23:31:50.463Z,99664.19
2023-08-08T23:34:17.147Z,99655.19
2023-08-08T23:36:43.617Z,99650.00
2023-08-08T23:39:11.029Z,99645.97
2023-08-08T23:41:37.581Z,99642.84
2023-08-08T23:44:04.498Z,99642.84
2023-08-08T23:46:31.480Z,99626.84
2023-08-08T23:48:58.006Z,99627.72
2023-08-08T23:51:24.567Z,99626.84
2023-08-08T23:53:51.149Z,99620.69
2023-08-08T23:56:17.761Z,99612.13
2023-08-08T23:58:44.313Z,99614.25
